createdAt,value
2022-12-16T00:01:25.943Z,28.17
2022-12-16T00:03:55.473Z,31.42
2022-12-16T00:06:25.025Z,28.35
2022-12-16T00:08:52.128Z,30.17
2022-12-16T00:11:19.854Z,28.38
2022-12-16T00:13:47.334Z,29.45
2022-12-16T00:16:16.410Z,31.63
2022-12-16T00:18:44.040Z,31.80
2022-12-16T00:21:11.265Z,29.00
2022-12-16T00:23:47.202Z,46.55
2022-12-16T00:26:14.414Z,30.58
2022-12-16T00:28:41.579Z,32.30
2022-12-16T00:31:08.458Z,25.20
2022-12-16T00:33:35.753Z,33.15
2022-12-16T00:36:03.158Z,27.08
2022-12-16T00:38:29.968Z,30.77
2022-12-16T00:40:56.777Z,25.33
2022-12-16T00:43:23.460Z,25.60
2022-12-16T00:45:50.618Z,34.30
2022-12-16T00:48:19.165Z,29.45
2022-12-16T00:50:55.792Z,29.98
2022-12-16T00:53:24.074Z,24.95
2022-12-16T00:55:51.351Z,24.65
2022-12-16T00:58:18.876Z,26.90
2022-12-16T01:00:45.579Z,24.45
2022-12-16T01:03:15.579Z,28.70
2022-12-16T01:05:46.171Z,26.40
2022-12-16T01:08:13.205Z,26.50
2022-12-16T01:10:39.827Z,28.27
2022-12-16T01:13:06.584Z,25.20
2022-12-16T01:15:33.201Z,29.00
2022-12-16T01:17:59.821Z,30.02
2022-12-16T01:20:26.446Z,29.27
2022-12-16T01:22:53.047Z,26.52
2022-12-16T01:25:21.564Z,26.90
2022-12-16T01:27:48.504Z,29.67
2022-12-16T01:30:15.181Z,26.50
2022-12-16T01:32:41.821Z,27.33
2022-12-16T01:35:29.500Z,24.55
2022-12-16T01:37:56.220Z,27.55
2022-12-16T01:40:24.804Z,30.73
2022-12-16T01:42:51.735Z,26.25
2022-12-16T01:45:25.221Z,29.38
2022-12-16T01:47:56.317Z,29.13
2022-12-16T01:50:23.341Z,26.02
2022-12-16T01:52:56.756Z,24.58
2022-12-16T01:55:31.600Z,31.17
2022-12-16T01:58:09.305Z,28.67
2022-12-16T02:00:38.477Z,26.83
2022-12-16T02:03:06.372Z,23.25
2022-12-16T02:05:36.366Z,28.73
2022-12-16T02:08:10.114Z,25.25
2022-12-16T02:10:39.838Z,23.90
2022-12-16T02:16:17.353Z,25.75
2022-12-16T02:19:31.140Z,29.92
2022-12-16T02:22:22.484Z,24.55
2022-12-16T02:25:26.644Z,28.85
2022-12-16T02:27:59.365Z,26.02
2022-12-16T02:31:05.516Z,27.95
2022-12-16T02:33:45.168Z,27.15
2022-12-16T02:39:20.930Z,23.30
2022-12-16T02:41:57.439Z,23.05
2022-12-16T02:44:36.284Z,25.50
2022-12-16T02:47:02.916Z,19.45
2022-12-16T02:49:30.000Z,24.90
2022-12-16T02:51:59.696Z,27.25
2022-12-16T02:54:27.963Z,23.55
2022-12-16T02:57:03.640Z,21.25
2022-12-16T02:59:42.260Z,24.75
2022-12-16T03:02:24.398Z,26.10
2022-12-16T03:05:08.668Z,21.95
2022-12-16T03:07:38.765Z,21.80
2022-12-16T03:10:10.183Z,26.75
2022-12-16T03:12:41.291Z,26.95
2022-12-16T03:15:09.248Z,31.27
2022-12-16T03:17:37.573Z,23.83
2022-12-16T03:20:16.605Z,21.98
2022-12-16T03:22:46.433Z,25.10
2022-12-16T03:25:13.980Z,28.20
2022-12-16T03:28:04.843Z,21.33
2022-12-16T03:30:47.897Z,24.08
2022-12-16T03:33:28.264Z,24.17
2022-12-16T03:36:02.046Z,26.15
2022-12-16T03:38:29.700Z,28.33
2022-12-16T03:40:58.209Z,26.20
2022-12-16T03:43:25.247Z,26.83
2022-12-16T03:45:56.812Z,21.92
2022-12-16T03:48:26.064Z,23.50
2022-12-16T03:50:52.707Z,25.55
2022-12-16T03:53:24.526Z,20.48
2022-12-16T03:55:51.114Z,22.60
2022-12-16T03:58:17.773Z,23.45
2022-12-16T04:00:44.539Z,26.80
2022-12-16T04:03:11.366Z,24.63
2022-12-16T04:05:38.429Z,27.30
2022-12-16T04:08:05.003Z,23.13
2022-12-16T04:10:50.217Z,26.10
2022-12-16T04:13:35.884Z,26.08
2022-12-16T04:16:21.351Z,21.60
2022-12-16T04:19:07.125Z,20.70
2022-12-16T04:21:52.613Z,24.48
2022-12-16T04:24:20.281Z,24.20
2022-12-16T04:27:15.072Z,21.90
2022-12-16T04:30:02.842Z,23.20
2022-12-16T04:32:49.729Z,20.30
2022-12-16T04:35:35.077Z,23.60
2022-12-16T04:38:20.517Z,24.50
2022-12-16T04:41:05.677Z,24.23
2022-12-16T04:43:51.050Z,22.90
2022-12-16T04:46:36.466Z,23.63
2022-12-16T04:49:21.860Z,24.80
2022-12-16T04:52:07.196Z,23.27
2022-12-16T04:54:52.281Z,18.17
2022-12-16T04:57:37.452Z,21.15
2022-12-16T05:00:23.816Z,23.42
2022-12-16T05:03:09.136Z,21.15
2022-12-16T05:05:55.085Z,24.67
2022-12-16T05:08:40.276Z,21.13
2022-12-16T05:11:35.887Z,22.05
2022-12-16T05:14:21.057Z,18.65
2022-12-16T05:17:06.190Z,20.73
2022-12-16T05:19:51.290Z,28.38
2022-12-16T05:22:36.502Z,23.20
2022-12-16T05:25:22.246Z,26.98
2022-12-16T05:28:12.121Z,22.90
2022-12-16T05:30:57.509Z,19.83
2022-12-16T05:33:42.796Z,21.00
2022-12-16T05:36:27.936Z,21.25
2022-12-16T05:39:13.122Z,45.05
2022-12-16T05:41:58.472Z,22.83
2022-12-16T05:44:43.774Z,26.92
2022-12-16T05:47:29.202Z,24.60
2022-12-16T05:50:14.555Z,25.38
2022-12-16T05:53:10.366Z,24.98
2022-12-16T05:55:55.700Z,25.88
2022-12-16T05:58:41.204Z,23.08
2022-12-16T06:01:27.110Z,22.13
2022-12-16T06:04:17.221Z,22.40
2022-12-16T06:07:02.967Z,26.27
2022-12-16T06:09:53.113Z,21.58
2022-12-16T06:12:41.897Z,25.98
2022-12-16T06:15:27.526Z,21.92
2022-12-16T06:18:12.479Z,21.00
2022-12-16T06:20:58.268Z,20.65
2022-12-16T06:23:43.164Z,21.40
2022-12-16T06:26:28.317Z,17.95
2022-12-16T06:29:13.695Z,20.75
2022-12-16T06:31:58.864Z,19.55
2022-12-16T06:34:44.114Z,21.95
2022-12-16T06:37:29.073Z,18.98
2022-12-16T06:40:14.000Z,20.48
2022-12-16T06:42:59.661Z,19.30
2022-12-16T06:45:45.493Z,21.38
2022-12-16T06:48:31.321Z,23.02
2022-12-16T06:51:16.633Z,20.27
2022-12-16T06:54:01.885Z,21.33
2022-12-16T06:56:47.100Z,18.60
2022-12-16T06:59:32.668Z,24.98
2022-12-16T07:02:18.235Z,18.05
2022-12-16T07:05:03.755Z,22.50
2022-12-16T07:08:05.726Z,21.48
2022-12-16T07:10:50.878Z,18.63
2022-12-16T07:13:36.138Z,22.80
2022-12-16T07:16:21.516Z,27.42
2022-12-16T07:19:06.973Z,20.20
2022-12-16T07:21:52.399Z,33.10
2022-12-16T07:24:40.076Z,19.85
2022-12-16T07:27:25.042Z,19.00
2022-12-16T07:30:10.488Z,22.95
2022-12-16T07:32:56.038Z,20.98
2022-12-16T07:35:41.191Z,21.98
2022-12-16T07:38:26.106Z,26.80
2022-12-16T07:41:11.156Z,24.40
2022-12-16T07:43:56.456Z,23.60
2022-12-16T07:46:41.625Z,18.77
2022-12-16T07:49:26.672Z,24.25
2022-12-16T07:52:11.543Z,24.80
2022-12-16T07:54:56.974Z,22.70
2022-12-16T07:57:42.197Z,20.33
2022-12-16T08:00:28.028Z,23.08
2022-12-16T08:03:13.953Z,19.77
2022-12-16T08:05:59.256Z,27.13
2022-12-16T08:08:44.429Z,23.55
2022-12-16T08:11:29.559Z,22.33
2022-12-16T08:14:14.439Z,21.85
2022-12-16T08:16:59.770Z,19.10
2022-12-16T08:19:44.688Z,21.50
2022-12-16T08:22:29.873Z,18.95
2022-12-16T08:25:15.217Z,19.13
2022-12-16T08:28:00.648Z,26.95
2022-12-16T08:30:45.951Z,22.65
2022-12-16T08:33:31.546Z,20.13
2022-12-16T08:36:17.499Z,24.08
2022-12-16T08:39:02.917Z,22.63
2022-12-16T08:41:48.269Z,20.40
2022-12-16T08:44:33.374Z,20.17
2022-12-16T08:47:18.461Z,19.48
2022-12-16T08:50:03.328Z,28.27
2022-12-16T08:52:49.125Z,24.00
2022-12-16T08:55:34.418Z,17.23
2022-12-16T08:58:19.743Z,20.10
2022-12-16T09:01:07.771Z,21.48
2022-12-16T09:03:55.276Z,19.33
2022-12-16T09:06:41.225Z,18.60
2022-12-16T09:09:27.805Z,22.95
2022-12-16T09:12:13.120Z,20.05
2022-12-16T09:14:58.296Z,18.63
2022-12-16T09:17:43.860Z,21.30
2022-12-16T09:20:28.991Z,18.67
2022-12-16T09:23:14.369Z,18.80
2022-12-16T09:25:59.709Z,24.80
2022-12-16T09:28:45.183Z,21.27
2022-12-16T09:31:30.458Z,19.52
2022-12-16T09:34:16.339Z,19.38
2022-12-16T09:37:02.475Z,20.50
2022-12-16T09:39:54.209Z,20.80
2022-12-16T09:42:49.422Z,20.67
2022-12-16T09:45:37.960Z,21.08
2022-12-16T09:48:34.088Z,21.02
2022-12-16T09:51:24.530Z,20.33
2022-12-16T09:54:15.130Z,19.90
2022-12-16T09:57:03.550Z,21.80
2022-12-16T09:59:58.570Z,17.73
2022-12-16T10:02:44.729Z,26.65
2022-12-16T10:05:40.808Z,22.45
2022-12-16T10:08:55.569Z,20.08
2022-12-16T10:11:49.281Z,16.00
2022-12-16T10:14:46.293Z,19.70
2022-12-16T10:17:40.678Z,20.02
2022-12-16T10:20:44.535Z,18.00
2022-12-16T10:23:41.966Z,21.73
2022-12-16T10:26:42.168Z,18.20
2022-12-16T10:29:43.769Z,24.50
2022-12-16T10:32:43.370Z,17.00
2022-12-16T10:38:28.223Z,15.73
2022-12-16T10:41:13.923Z,17.80
2022-12-16T10:44:05.178Z,19.25
2022-12-16T10:46:54.292Z,16.95
2022-12-16T10:49:41.489Z,16.77
2022-12-16T10:52:33.420Z,20.80
2022-12-16T10:55:35.705Z,19.00
2022-12-16T10:58:39.165Z,18.63
2022-12-16T11:01:41.195Z,18.58
2022-12-16T11:04:46.137Z,17.52
2022-12-16T11:07:51.569Z,18.80
2022-12-16T11:11:01.257Z,17.30
2022-12-16T11:13:49.401Z,21.88
2022-12-16T11:16:38.586Z,17.85
2022-12-16T11:19:39.213Z,19.85
2022-12-16T11:22:31.517Z,18.98
2022-12-16T11:25:46.313Z,20.00
2022-12-16T11:28:35.881Z,20.02
2022-12-16T11:31:33.283Z,16.40
2022-12-16T11:34:20.892Z,18.30
2022-12-16T11:37:28.347Z,20.13
2022-12-16T11:40:13.817Z,15.43
2022-12-16T11:43:03.017Z,18.50
2022-12-16T11:45:54.083Z,16.50
2022-12-16T11:48:55.907Z,21.58
2022-12-16T11:51:45.647Z,18.38
2022-12-16T11:57:26.122Z,18.80
2022-12-16T12:00:17.517Z,22.40
2022-12-16T12:03:11.022Z,14.88
2022-12-16T12:06:00.743Z,17.13
2022-12-16T12:08:55.874Z,14.75
2022-12-16T12:11:54.250Z,16.52
2022-12-16T12:15:07.408Z,13.85
2022-12-16T12:17:58.983Z,15.02
2022-12-16T12:20:59.280Z,16.65
2022-12-16T12:23:54.987Z,15.07
2022-12-16T12:26:51.922Z,14.30
2022-12-16T12:29:38.204Z,15.50
2022-12-16T12:32:42.896Z,18.25
2022-12-16T12:35:40.623Z,16.77
2022-12-16T12:38:48.608Z,14.52
2022-12-16T12:41:47.430Z,17.48
2022-12-16T12:45:02.612Z,13.55
2022-12-16T12:47:49.823Z,19.15
2022-12-16T12:50:47.306Z,18.80
2022-12-16T12:54:00.284Z,17.25
2022-12-16T12:57:09.029Z,16.83
2022-12-16T13:00:23.204Z,16.77
2022-12-16T13:03:34.300Z,13.75
2022-12-16T13:06:20.580Z,13.77
2022-12-16T13:09:08.825Z,17.50
2022-12-16T13:12:18.252Z,18.52
2022-12-16T13:15:06.256Z,16.48
2022-12-16T13:18:20.457Z,18.73
2022-12-16T13:21:13.548Z,13.25
2022-12-16T13:24:03.949Z,14.10
2022-12-16T13:26:52.743Z,18.02
2022-12-16T13:29:47.710Z,18.73
2022-12-16T13:32:45.492Z,17.13
2022-12-16T13:35:32.003Z,23.85
2022-12-16T13:38:37.773Z,18.50
2022-12-16T13:41:25.851Z,17.83
2022-12-16T13:44:11.225Z,17.17
2022-12-16T13:47:08.134Z,15.23
2022-12-16T13:49:56.445Z,16.98
2022-12-16T13:53:16.247Z,16.80
2022-12-16T13:56:13.165Z,21.00
2022-12-16T13:59:02.592Z,17.67
2022-12-16T14:02:06.848Z,16.60
2022-12-16T14:05:08.438Z,16.20
2022-12-16T14:07:57.784Z,16.00
2022-12-16T14:10:53.366Z,17.42
2022-12-16T14:14:04.748Z,19.30
2022-12-16T14:17:11.136Z,17.83
2022-12-16T14:20:18.231Z,18.55
2022-12-16T14:23:55.992Z,17.85
2022-12-16T14:26:36.803Z,16.88
2022-12-16T14:29:32.536Z,13.98
2022-12-16T14:32:19.182Z,14.75
2022-12-16T14:35:04.213Z,15.48
2022-12-16T14:37:54.937Z,19.25
2022-12-16T14:40:58.408Z,18.00
2022-12-16T14:43:44.597Z,14.95
2022-12-16T14:46:50.730Z,15.32
2022-12-16T14:49:45.107Z,14.15
2022-12-16T14:52:38.486Z,16.17
2022-12-16T14:55:35.273Z,12.82
2022-12-16T14:58:28.991Z,15.90
2022-12-16T15:01:18.494Z,22.88
2022-12-16T15:07:02.091Z,15.52
2022-12-16T15:09:57.171Z,15.55
2022-12-16T15:12:46.464Z,14.48
2022-12-16T15:15:44.237Z,12.73
2022-12-16T15:18:37.081Z,16.63
2022-12-16T15:21:22.764Z,18.30
2022-12-16T15:24:08.095Z,18.67
2022-12-16T15:26:53.749Z,17.35
2022-12-16T15:29:51.126Z,14.98
2022-12-16T15:32:54.415Z,22.98
2022-12-16T15:35:42.774Z,19.05
2022-12-16T15:38:33.850Z,18.85
2022-12-16T15:41:24.613Z,16.60
2022-12-16T15:44:10.938Z,16.05
2022-12-16T15:46:56.637Z,17.60
2022-12-16T15:49:51.503Z,22.65
2022-12-16T15:52:49.060Z,15.85
2022-12-16T15:55:50.347Z,17.75
2022-12-16T15:58:44.326Z,17.10
2022-12-16T16:01:32.553Z,27.67
2022-12-16T16:04:17.853Z,16.17
2022-12-16T16:07:09.992Z,15.68
2022-12-16T16:09:57.165Z,19.85
2022-12-16T16:12:43.819Z,21.90
2022-12-16T16:15:32.930Z,25.10
2022-12-16T16:18:38.535Z,24.88
2022-12-16T16:21:23.788Z,20.13
2022-12-16T16:24:08.642Z,19.80
2022-12-16T16:26:53.830Z,22.02
2022-12-16T16:29:38.961Z,18.83
2022-12-16T16:32:24.578Z,23.48
2022-12-16T16:35:09.795Z,17.77
2022-12-16T16:37:55.179Z,19.77
2022-12-16T16:40:53.667Z,18.42
2022-12-16T16:43:38.817Z,15.38
2022-12-16T16:46:39.484Z,22.40
2022-12-16T16:49:30.784Z,50.72
2022-12-16T16:52:16.197Z,23.88
2022-12-16T16:55:01.461Z,20.45
2022-12-16T16:57:51.739Z,21.20
2022-12-16T17:00:36.969Z,23.98
2022-12-16T17:03:22.687Z,21.67
2022-12-16T17:06:07.959Z,18.42
2022-12-16T17:08:53.186Z,22.55
2022-12-16T17:11:40.948Z,17.42
2022-12-16T17:14:32.581Z,20.13
2022-12-16T17:17:18.225Z,17.13
2022-12-16T17:20:04.013Z,20.95
2022-12-16T17:22:49.863Z,22.75
2022-12-16T17:25:35.443Z,23.42
2022-12-16T17:28:21.648Z,19.63
2022-12-16T17:31:06.832Z,20.17
2022-12-16T17:33:52.070Z,16.70
2022-12-16T17:36:37.705Z,20.30
2022-12-16T17:39:24.025Z,19.63
2022-12-16T17:42:09.621Z,21.55
2022-12-16T17:44:54.491Z,24.00
2022-12-16T17:47:41.397Z,23.42
2022-12-16T17:50:27.339Z,20.60
2022-12-16T17:53:14.438Z,22.25
2022-12-16T17:56:00.186Z,26.30
2022-12-16T17:58:52.786Z,25.23
2022-12-16T18:01:38.719Z,24.05
2022-12-16T18:04:24.709Z,23.40
2022-12-16T18:07:10.375Z,21.30
2022-12-16T18:09:55.565Z,25.42
2022-12-16T18:12:41.603Z,26.65
2022-12-16T18:15:27.431Z,21.23
2022-12-16T18:18:12.697Z,20.00
2022-12-16T18:20:58.043Z,22.77
2022-12-16T18:23:43.225Z,23.80
2022-12-16T18:26:29.551Z,19.90
2022-12-16T18:29:15.328Z,25.58
2022-12-16T18:32:00.563Z,27.35
2022-12-16T18:34:45.939Z,24.67
2022-12-16T18:37:31.707Z,22.55
2022-12-16T18:40:17.556Z,21.40
2022-12-16T18:43:03.028Z,22.10
2022-12-16T18:45:51.304Z,50.65
2022-12-16T18:48:36.394Z,27.33
2022-12-16T18:51:22.239Z,23.25
2022-12-16T18:54:09.199Z,28.08
2022-12-16T18:56:54.604Z,24.33
2022-12-16T18:59:39.790Z,24.40
2022-12-16T19:02:25.512Z,23.42
2022-12-16T19:05:11.238Z,21.55
2022-12-16T19:07:56.540Z,24.02
2022-12-16T19:10:41.891Z,20.55
2022-12-16T19:13:32.398Z,22.75
2022-12-16T19:16:17.673Z,27.45
2022-12-16T19:19:03.040Z,22.23
2022-12-16T19:24:55.027Z,29.38
2022-12-16T19:27:42.023Z,32.08
2022-12-16T19:30:28.582Z,24.88
2022-12-16T19:33:13.978Z,26.45
2022-12-16T19:35:59.571Z,28.52
2022-12-16T19:38:44.772Z,24.83
2022-12-16T19:41:34.509Z,23.67
2022-12-16T19:44:20.274Z,24.63
2022-12-16T19:47:05.736Z,27.13
2022-12-16T19:49:54.780Z,26.15
2022-12-16T19:52:42.091Z,25.02
2022-12-16T19:55:27.413Z,20.77
2022-12-16T19:58:12.826Z,22.52
2022-12-16T20:01:01.398Z,26.73
2022-12-16T20:03:47.727Z,33.03
2022-12-16T20:06:33.607Z,25.58
2022-12-16T20:09:19.687Z,25.95
2022-12-16T20:12:09.952Z,32.03
2022-12-16T20:14:56.560Z,29.80
2022-12-16T20:17:44.167Z,30.33
2022-12-16T20:20:29.845Z,29.15
2022-12-16T20:23:15.208Z,28.48
2022-12-16T20:26:00.919Z,31.33
2022-12-16T20:28:46.369Z,28.33
2022-12-16T20:31:31.785Z,36.17
2022-12-16T20:34:23.278Z,38.15
2022-12-16T20:37:08.691Z,31.08
2022-12-16T20:39:56.409Z,33.85
2022-12-16T20:43:00.601Z,31.52
2022-12-16T20:45:48.299Z,25.90
2022-12-16T20:48:34.911Z,36.38
2022-12-16T20:51:26.530Z,29.27
2022-12-16T20:54:14.267Z,25.80
2022-12-16T20:56:59.877Z,24.17
2022-12-16T20:59:44.931Z,28.60
2022-12-16T21:05:37.128Z,28.02
2022-12-16T21:08:22.531Z,23.42
2022-12-16T21:11:08.025Z,26.67
2022-12-16T21:13:56.358Z,23.77
2022-12-16T21:16:41.955Z,29.42
2022-12-16T21:19:33.093Z,27.00
2022-12-16T21:22:18.795Z,25.73
2022-12-16T21:25:04.044Z,30.13
2022-12-16T21:27:49.292Z,24.10
2022-12-16T21:30:34.476Z,28.08
2022-12-16T21:33:19.799Z,24.75
2022-12-16T21:36:14.276Z,24.50
2022-12-16T21:39:00.127Z,30.83
2022-12-16T21:41:45.686Z,29.40
2022-12-16T21:44:30.938Z,31.63
2022-12-16T21:47:16.091Z,26.10
2022-12-16T21:50:01.698Z,23.88
2022-12-16T21:52:46.965Z,25.45
2022-12-16T21:55:35.513Z,24.52
2022-12-16T21:58:31.928Z,27.98
2022-12-16T22:01:18.315Z,24.63
2022-12-16T22:04:09.677Z,28.48
2022-12-16T22:06:55.154Z,24.05
2022-12-16T22:09:42.356Z,28.35
2022-12-16T22:12:28.013Z,27.60
2022-12-16T22:15:13.368Z,28.27
2022-12-16T22:17:59.086Z,21.67
2022-12-16T22:20:45.603Z,31.25
2022-12-16T22:23:31.056Z,25.23
2022-12-16T22:26:18.605Z,29.73
2022-12-16T22:29:07.221Z,25.38
2022-12-16T22:31:58.373Z,30.02
2022-12-16T22:34:43.708Z,30.55
2022-12-16T22:37:31.439Z,26.15
2022-12-16T22:40:17.264Z,22.13
2022-12-16T22:43:02.646Z,27.35
2022-12-16T22:45:47.848Z,27.20
2022-12-16T22:48:35.856Z,34.22
2022-12-16T22:51:21.433Z,30.20
2022-12-16T22:54:07.731Z,26.73
2022-12-16T22:56:56.332Z,27.75
2022-12-16T22:59:42.407Z,29.17
2022-12-16T23:02:28.342Z,27.90
2022-12-16T23:05:14.490Z,33.70
2022-12-16T23:08:01.616Z,28.40
2022-12-16T23:10:59.172Z,31.20
2022-12-16T23:13:45.618Z,38.40
2022-12-16T23:16:31.029Z,28.25
2022-12-16T23:19:16.283Z,23.80
2022-12-16T23:22:02.030Z,25.92
2022-12-16T23:25:07.021Z,24.85
2022-12-16T23:27:52.238Z,26.42
2022-12-16T23:30:37.967Z,27.50
2022-12-16T23:33:23.037Z,37.10
2022-12-16T23:36:08.360Z,37.35
2022-12-16T23:38:53.802Z,29.08
2022-12-16T23:41:41.552Z,26.95
2022-12-16T23:44:26.663Z,24.88
2022-12-16T23:47:11.926Z,33.05
2022-12-16T23:49:57.191Z,29.77
2022-12-16T23:52:42.416Z,27.58
2022-12-16T23:55:28.534Z,27.05
2022-12-16T23:58:21.251Z,29.30
